Baring Plt, Maine
Current Conditions -  °F | °C
As of 4:55 AM on Saturday 29 Nov 2014 (Local Time) from KBHB Reporting Station
Clear Clear  
Wind Chill: 11°   Ceiling: Unl
Heat Index: 18°   Visibility: 10mi
Dew Point: 16°   Wind: 5mph
Humidity: 93%   Direction: 280°W
Pressure: 30.22"   Gusts: NA
Location:  45.0659°N, 67.4987°W
Report Text: KBHB 290955Z AUTO 28004KT 10SM CLR M08/M09 A3022 RMK AO1
Loading
Personal Weather Stations






























Interactive Weather Map New forecast layout! Learn more

10-Day Weather Forecast

Advertisements
Track Severe Weather on mobile